Time;durP1;ratioP1;P1;durP2;ratioP2;P2;SDS_P1;SDS_P2;PMS_P1;PMS_P2;Temp;Humidity;BMP_temperature;BMP_pressure;BME280_temperature;BME280_humidity;BME280_pressure;Samples;Min_cycle;Max_cycle;Signal;HPM_P1;HPM_P2
2022/10/12 00:01:15;;;;;;;0.40;0.40;;;12.50;99.90;;;;;;5090148;28;20246;-75
2022/10/12 00:03:41;;;;;;;0.40;0.40;;;12.40;99.90;;;;;;5090832;28;20227;-76
2022/10/12 00:06:13;;;;;;;0.40;0.40;;;12.50;99.90;;;;;;5090779;28;20182;-77
2022/10/12 00:08:40;;;;;;;0.30;0.30;;;12.50;99.90;;;;;;5090775;28;20197;-76
2022/10/12 00:11:10;;;;;;;0.47;0.47;;;12.50;99.90;;;;;;5089829;28;20278;-76
2022/10/12 00:13:36;;;;;;;0.50;0.50;;;12.50;99.90;;;;;;5090563;28;20192;-76
2022/10/12 00:16:07;;;;;;;0.50;0.50;;;12.50;99.90;;;;;;5093493;28;20646;-76
2022/10/12 00:18:34;;;;;;;0.60;0.60;;;12.50;99.90;;;;;;5094244;28;20218;-76
2022/10/12 00:21:01;;;;;;;0.40;0.40;;;12.50;99.90;;;;;;5093241;28;20682;-77
2022/10/12 00:23:27;;;;;;;0.40;0.40;;;12.40;99.90;;;;;;5094216;28;20174;-77
2022/10/12 00:25:53;;;;;;;0.40;0.40;;;12.30;99.90;;;;;;5094215;28;20170;-79
2022/10/12 00:28:18;;;;;;;0.50;0.50;;;12.20;99.90;;;;;;5094009;28;20231;-78
2022/10/12 00:30:44;;;;;;;0.50;0.50;;;12.20;99.90;;;;;;5093699;28;20193;-77
2022/10/12 00:33:09;;;;;;;0.50;0.50;;;12.10;99.90;;;;;;5094117;28;20182;-78
2022/10/12 00:35:35;;;;;;;0.50;0.50;;;12.00;99.90;;;;;;5093942;28;20181;-78
2022/10/12 00:38:00;;;;;;;0.50;0.50;;;12.00;99.90;;;;;;5093846;28;20205;-79
2022/10/12 00:40:26;;;;;;;0.60;0.60;;;11.90;99.90;;;;;;5093299;28;20190;-76
2022/10/12 00:42:51;;;;;;;0.50;0.50;;;11.80;99.90;;;;;;5093709;28;20174;-78
2022/10/12 00:45:17;;;;;;;0.50;0.50;;;11.80;99.90;;;;;;5093871;28;20495;-79
2022/10/12 00:47:51;;;;;;;0.50;0.50;;;11.80;99.90;;;;;;5093899;28;20182;-77
2022/10/12 00:50:30;;;;;;;0.50;0.50;;;11.80;99.90;;;;;;5093090;28;20205;-77
2022/10/12 00:53:18;;;;;;;0.50;0.50;;;11.90;99.90;;;;;;5093729;28;20177;-79
2022/10/12 00:55:48;;;;;;;0.50;0.50;;;11.80;99.90;;;;;;5093528;28;20544;-78
2022/10/12 00:58:14;;;;;;;0.50;0.50;;;11.70;99.90;;;;;;5093550;28;20262;-79
2022/10/12 01:00:41;;;;;;;0.60;0.60;;;11.50;99.90;;;;;;5093254;28;20194;-79
2022/10/12 01:03:09;;;;;;;0.60;0.60;;;11.40;99.90;;;;;;5093699;28;20178;-77
2022/10/12 01:05:38;;;;;;;0.60;0.60;;;11.40;99.90;;;;;;5091920;28;20170;-76
2022/10/12 01:08:04;;;;;;;0.60;0.60;;;11.30;99.90;;;;;;5093034;28;20646;-76
2022/10/12 01:10:29;;;;;;;0.50;0.50;;;11.40;99.90;;;;;;5092658;28;20201;-76
2022/10/12 01:12:55;;;;;;;0.57;0.57;;;11.40;99.90;;;;;;5093259;28;20200;-76
2022/10/12 01:15:23;;;;;;;0.47;0.47;;;11.40;99.90;;;;;;5093070;28;20530;-75
2022/10/12 01:17:59;;;;;;;0.50;0.50;;;11.40;99.90;;;;;;5093133;28;20297;-76
2022/10/12 01:20:24;;;;;;;0.60;0.60;;;11.40;99.90;;;;;;5092278;28;20197;-76
2022/10/12 01:23:10;;;;;;;0.60;0.60;;;11.30;99.90;;;;;;5093032;28;20223;-75
2022/10/12 01:26:13;;;;;;;0.50;0.50;;;11.20;99.90;;;;;;5093078;28;20185;-76
2022/10/12 01:28:53;;;;;;;0.50;0.50;;;11.20;99.90;;;;;;5092697;28;20213;-76
2022/10/12 01:31:44;;;;;;;0.50;0.50;;;11.20;99.90;;;;;;5092507;28;20194;-76
2022/10/12 01:34:15;;;;;;;0.60;0.60;;;11.20;99.90;;;;;;5092088;28;20185;-77
2022/10/12 01:36:47;;;;;;;0.50;0.50;;;11.20;99.90;;;;;;5092805;28;20173;-76
2022/10/12 01:39:37;;;;;;;0.50;0.50;;;11.20;99.90;;;;;;5092817;28;20244;-76
2022/10/12 01:42:08;;;;;;;0.60;0.60;;;11.10;99.90;;;;;;5092854;28;20209;-76
2022/10/12 01:44:34;;;;;;;0.40;0.40;;;11.10;99.90;;;;;;5092751;28;20231;-78
2022/10/12 01:47:00;;;;;;;0.57;0.57;;;11.00;99.90;;;;;;5092362;28;20178;-77
2022/10/12 01:49:32;;;;;;;0.60;0.60;;;11.00;99.90;;;;;;5092145;28;20192;-77
2022/10/12 01:52:22;;;;;;;0.60;0.60;;;11.00;99.90;;;;;;5092213;28;20662;-76
2022/10/12 01:54:50;;;;;;;0.60;0.60;;;11.10;99.90;;;;;;5092388;28;20201;-78
2022/10/12 01:57:33;;;;;;;0.60;0.60;;;11.10;99.90;;;;;;5092362;28;20638;-77
2022/10/12 02:00:01;;;;;;;0.60;0.60;;;11.00;99.90;;;;;;5091765;28;20752;-78
2022/10/12 02:02:48;;;;;;;0.60;0.60;;;10.90;99.90;;;;;;5092137;28;20258;-78
2022/10/12 02:05:26;;;;;;;0.60;0.60;;;10.90;99.90;;;;;;5091953;28;20177;-77
2022/10/12 02:08:02;;;;;;;0.40;0.40;;;10.90;99.90;;;;;;5092537;28;20248;-78
2022/10/12 02:10:37;;;;;;;0.60;0.60;;;10.90;99.90;;;;;;5091481;28;20190;-77
2022/10/12 02:13:07;;;;;;;0.60;0.60;;;10.90;99.90;;;;;;5092256;28;20530;-77
2022/10/12 02:15:35;;;;;;;0.40;0.40;;;10.90;99.90;;;;;;5093013;28;20254;-77
2022/10/12 02:18:03;;;;;;;0.50;0.50;;;10.80;99.90;;;;;;5092042;28;20231;-78
2022/10/12 02:20:30;;;;;;;0.50;0.50;;;10.70;99.90;;;;;;5091462;28;20193;-77
2022/10/12 02:22:55;;;;;;;0.60;0.60;;;10.70;99.90;;;;;;5092608;28;20199;-77
2022/10/12 02:25:24;;;;;;;0.40;0.40;;;10.60;99.90;;;;;;5092408;28;20201;-79
2022/10/12 02:27:59;;;;;;;0.60;0.60;;;10.40;99.90;;;;;;5092253;28;20177;-78
2022/10/12 02:30:25;;;;;;;0.50;0.50;;;10.40;99.90;;;;;;5091160;28;20190;-78
2022/10/12 02:33:11;;;;;;;0.40;0.40;;;10.40;99.90;;;;;;5091792;28;20178;-77
2022/10/12 02:35:46;;;;;;;0.50;0.50;;;10.40;99.90;;;;;;5094342;28;20174;-76
2022/10/12 02:38:16;;;;;;;0.60;0.60;;;10.30;99.90;;;;;;5094648;28;20213;-77
2022/10/12 02:40:49;;;;;;;0.50;0.50;;;10.20;99.90;;;;;;5093567;28;20220;-76
2022/10/12 02:43:40;;;;;;;0.50;0.50;;;10.00;99.90;;;;;;5091539;28;20310;-76
2022/10/12 02:46:09;;;;;;;0.60;0.60;;;10.00;99.90;;;;;;5091800;28;20658;-77
2022/10/12 02:48:37;;;;;;;0.60;0.60;;;10.00;99.90;;;;;;5091312;28;20630;-76
2022/10/12 02:51:04;;;;;;;0.60;0.60;;;9.90;99.90;;;;;;5091075;28;20225;-77
2022/10/12 02:53:30;;;;;;;0.53;0.53;;;9.80;99.90;;;;;;5091631;28;20252;-77
2022/10/12 02:56:02;;;;;;;0.60;0.60;;;9.90;99.90;;;;;;5091469;28;20606;-78
2022/10/12 02:58:28;;;;;;;0.60;0.60;;;9.80;99.90;;;;;;5091676;28;20213;-78
2022/10/12 03:00:53;;;;;;;0.50;0.50;;;9.80;99.90;;;;;;5091057;28;20186;-77
2022/10/12 03:03:19;;;;;;;0.53;0.53;;;9.60;99.90;;;;;;5091582;28;20174;-76
2022/10/12 03:05:45;;;;;;;0.50;0.50;;;9.60;99.90;;;;;;5091447;28;20181;-77
2022/10/12 03:08:10;;;;;;;0.57;0.57;;;9.80;99.90;;;;;;5091316;28;20231;-77
2022/10/12 03:10:36;;;;;;;0.50;0.50;;;9.80;99.90;;;;;;5139259;22;20235;-83
2022/10/12 03:13:02;;;;;;;0.50;0.50;;;9.70;99.90;;;;;;5128187;28;20168;-81
2022/10/12 03:15:27;;;;;;;0.47;0.47;;;9.60;99.90;;;;;;5138121;28;20189;-80
2022/10/12 03:17:53;;;;;;;0.50;0.50;;;9.60;99.90;;;;;;5137842;28;20220;-80
2022/10/12 03:20:18;;;;;;;0.70;0.70;;;9.70;99.90;;;;;;5137352;28;20177;-80
2022/10/12 03:22:44;;;;;;;0.60;0.60;;;9.70;99.90;;;;;;5137693;28;20236;-81
2022/10/12 03:25:09;;;;;;;0.50;0.50;;;9.70;99.90;;;;;;5137419;28;20177;-83
2022/10/12 03:27:35;;;;;;;0.50;0.50;;;9.80;99.90;;;;;;5136531;28;20187;-83
2022/10/12 03:30:00;;;;;;;0.40;0.40;;;9.90;99.90;;;;;;5125712;28;20228;-83
2022/10/12 03:32:26;;;;;;;0.40;0.40;;;10.20;99.90;;;;;;5126677;28;20245;-83
2022/10/12 03:34:51;;;;;;;0.50;0.50;;;10.00;99.90;;;;;;5127224;28;20180;-84
2022/10/12 03:37:17;;;;;;;0.53;0.53;;;10.20;99.90;;;;;;5127278;28;20313;-83
2022/10/12 03:39:43;;;;;;;0.50;0.50;;;10.20;99.90;;;;;;5129272;28;20209;-84
2022/10/12 03:42:09;;;;;;;0.50;0.50;;;10.40;99.90;;;;;;5128415;28;20200;-83
2022/10/12 03:44:35;;;;;;;0.60;0.60;;;10.20;99.90;;;;;;5125962;28;20177;-84
2022/10/12 03:47:00;;;;;;;0.50;0.50;;;10.20;99.90;;;;;;5123894;28;20249;-81
2022/10/12 03:49:26;;;;;;;0.50;0.50;;;10.30;99.90;;;;;;5121422;28;20263;-82
2022/10/12 03:51:51;;;;;;;0.50;0.50;;;10.40;99.90;;;;;;5125984;28;20197;-81
2022/10/12 03:54:17;;;;;;;0.40;0.40;;;10.40;99.90;;;;;;5126527;28;20181;-82
2022/10/12 03:56:42;;;;;;;0.50;0.50;;;10.50;99.90;;;;;;5128796;28;20173;-81
2022/10/12 03:59:08;;;;;;;0.50;0.50;;;10.50;99.90;;;;;;5129570;28;20236;-81
2022/10/12 04:01:33;;;;;;;0.50;0.50;;;11.00;99.90;;;;;;5129508;28;20284;-81
2022/10/12 04:03:59;;;;;;;0.50;0.50;;;10.60;99.90;;;;;;5131047;28;20234;-82
2022/10/12 04:06:24;;;;;;;0.63;0.63;;;10.70;99.90;;;;;;5134791;28;20169;-80
2022/10/12 04:08:50;;;;;;;0.50;0.50;;;10.70;99.90;;;;;;5134663;28;20173;-80
2022/10/12 04:11:15;;;;;;;0.50;0.50;;;10.70;99.90;;;;;;5131495;28;20665;-81
2022/10/12 04:13:42;;;;;;;0.50;0.50;;;10.70;99.90;;;;;;5126489;28;20546;-82
2022/10/12 04:16:09;;;;;;;0.60;0.60;;;10.60;99.90;;;;;;5126629;28;20169;-81
2022/10/12 04:18:35;;;;;;;0.50;0.50;;;10.60;99.90;;;;;;5126164;28;20475;-81
2022/10/12 04:21:01;;;;;;;0.50;0.50;;;10.70;99.90;;;;;;5125457;28;20248;-81
2022/10/12 04:23:26;;;;;;;0.50;0.50;;;10.80;99.90;;;;;;5140178;28;20177;-81
2022/10/12 04:25:52;;;;;;;0.50;0.50;;;10.90;99.90;;;;;;5140909;28;20164;-80
2022/10/12 04:28:18;;;;;;;0.50;0.50;;;11.00;99.90;;;;;;5140498;28;20169;-81
2022/10/12 04:30:44;;;;;;;0.50;0.50;;;11.00;99.90;;;;;;5139558;28;20197;-80
2022/10/12 04:33:10;;;;;;;0.40;0.40;;;11.10;99.90;;;;;;5139847;28;20270;-80
2022/10/12 04:35:35;;;;;;;0.57;0.57;;;11.70;99.90;;;;;;5139628;28;20177;-80
2022/10/12 04:38:01;;;;;;;0.40;0.40;;;11.20;99.90;;;;;;5138944;28;20252;-79
2022/10/12 04:40:26;;;;;;;0.60;0.60;;;11.10;99.90;;;;;;5134521;28;20253;-81
2022/10/12 04:42:52;;;;;;;0.50;0.50;;;11.00;99.90;;;;;;5127139;28;20200;-81
2022/10/12 04:45:17;;;;;;;0.50;0.50;;;11.10;99.90;;;;;;5130396;28;20196;-83
2022/10/12 04:47:43;;;;;;;0.60;0.60;;;11.00;99.90;;;;;;5129947;28;20173;-82
2022/10/12 04:50:08;;;;;;;0.50;0.50;;;10.90;99.90;;;;;;5130609;28;20189;-82
2022/10/12 04:52:34;;;;;;;0.30;0.30;;;10.90;99.90;;;;;;5131313;28;20196;-82
2022/10/12 04:54:59;;;;;;;0.60;0.60;;;11.00;99.90;;;;;;5131593;28;20173;-82
2022/10/12 04:57:25;;;;;;;0.40;0.40;;;10.90;99.90;;;;;;5130638;28;20180;-82
2022/10/12 04:59:50;;;;;;;0.50;0.50;;;11.00;99.90;;;;;;5128267;28;20232;-82
2022/10/12 05:02:16;;;;;;;0.50;0.50;;;10.90;99.90;;;;;;5128368;28;20245;-81
2022/10/12 05:04:42;;;;;;;0.60;0.60;;;10.90;99.90;;;;;;5128989;28;20240;-83
2022/10/12 05:07:07;;;;;;;0.50;0.50;;;11.00;99.90;;;;;;5128555;28;20180;-81
2022/10/12 05:09:33;;;;;;;0.60;0.60;;;11.00;99.90;;;;;;5127374;28;20252;-83
2022/10/12 05:11:58;;;;;;;0.50;0.50;;;11.10;99.90;;;;;;5127011;28;20193;-81
2022/10/12 05:14:24;;;;;;;0.50;0.50;;;11.00;99.90;;;;;;5127756;28;20199;-81
2022/10/12 05:16:49;;;;;;;0.50;0.50;;;11.00;99.90;;;;;;5128683;28;20181;-81
2022/10/12 05:19:15;;;;;;;0.47;0.47;;;11.00;99.90;;;;;;5126921;28;20208;-81
2022/10/12 05:21:41;;;;;;;0.40;0.40;;;11.00;99.90;;;;;;5126206;28;20204;-80
2022/10/12 05:24:07;;;;;;;0.50;0.50;;;11.00;99.90;;;;;;5127735;28;20173;-81
2022/10/12 05:26:33;;;;;;;0.40;0.40;;;11.10;99.90;;;;;;5127184;28;20169;-82
2022/10/12 05:28:58;;;;;;;0.50;0.50;;;11.10;99.90;;;;;;5128347;28;20207;-83
2022/10/12 05:31:24;;;;;;;0.40;0.40;;;11.20;99.90;;;;;;5127647;28;20197;-84
2022/10/12 05:33:49;;;;;;;0.50;0.50;;;11.30;99.90;;;;;;5126531;28;20177;-83
2022/10/12 05:36:15;;;;;;;0.50;0.50;;;11.20;99.90;;;;;;5118842;28;20181;-82
2022/10/12 05:38:40;;;;;;;0.40;0.40;;;11.30;99.90;;;;;;5112857;28;20277;-83
2022/10/12 05:41:06;;;;;;;0.60;0.60;;;11.30;99.90;;;;;;5125901;28;20193;-84
2022/10/12 05:43:31;;;;;;;0.50;0.50;;;11.20;99.90;;;;;;5117690;28;20188;-81
2022/10/12 05:45:57;;;;;;;0.50;0.50;;;11.20;99.90;;;;;;5118541;28;20180;-83
2022/10/12 05:48:23;;;;;;;0.50;0.50;;;11.20;99.90;;;;;;5120028;28;20169;-84
2022/10/12 05:50:53;;;;;;;0.57;0.57;;;11.20;99.90;;;;;;5122226;28;20258;-84
2022/10/12 05:53:19;;;;;;;0.50;0.50;;;11.30;99.90;;;;;;5108791;28;20559;-84
2022/10/12 05:55:55;;;;;;;0.50;0.50;;;11.40;99.90;;;;;;5122129;28;20177;-86
2022/10/12 05:58:21;;;;;;;0.80;0.80;;;11.40;99.90;;;;;;5117491;28;20208;-82
2022/10/12 06:00:47;;;;;;;0.47;0.47;;;11.30;99.90;;;;;;5121674;28;20212;-80
2022/10/12 06:03:12;;;;;;;0.50;0.50;;;11.30;99.90;;;;;;5120174;28;20178;-81
2022/10/12 06:05:38;;;;;;;0.50;0.50;;;11.40;99.90;;;;;;5129476;28;20192;-81
2022/10/12 06:08:03;;;;;;;0.50;0.50;;;11.40;99.90;;;;;;5126757;28;20249;-81
2022/10/12 06:10:29;;;;;;;0.43;0.43;;;11.40;99.90;;;;;;5117143;28;20623;-80
2022/10/12 06:12:54;;;;;;;0.50;0.50;;;11.40;99.90;;;;;;5122451;28;20181;-80
2022/10/12 06:15:20;;;;;;;0.50;0.50;;;11.30;99.90;;;;;;5118065;28;20272;-79
2022/10/12 06:17:45;;;;;;;0.40;0.40;;;11.50;99.90;;;;;;5117735;28;20214;-78
2022/10/12 06:20:11;;;;;;;0.50;0.50;;;11.60;99.90;;;;;;5117802;28;20204;-80
2022/10/12 06:22:37;;;;;;;0.47;0.47;;;11.60;99.90;;;;;;5121328;28;20173;-80
2022/10/12 06:25:03;;;;;;;0.50;0.50;;;11.60;99.90;;;;;;5116877;28;20181;-79
2022/10/12 06:27:29;;;;;;;0.43;0.43;;;11.50;99.90;;;;;;5121344;28;20188;-80
2022/10/12 06:29:54;;;;;;;0.60;0.60;;;11.50;99.90;;;;;;5109275;28;20201;-81
2022/10/12 06:32:20;;;;;;;0.40;0.40;;;11.50;99.90;;;;;;5118154;28;20187;-79
2022/10/12 06:34:45;;;;;;;0.50;0.50;;;11.60;99.90;;;;;;5108469;27;20629;-80
2022/10/12 06:37:11;;;;;;;0.40;0.40;;;11.70;99.90;;;;;;5120799;27;20268;-79
2022/10/12 06:39:36;;;;;;;0.40;0.40;;;11.80;99.90;;;;;;5110414;28;20209;-79
2022/10/12 06:42:02;;;;;;;0.40;0.40;;;11.90;99.90;;;;;;5104692;28;20237;-79
2022/10/12 06:44:28;;;;;;;0.50;0.50;;;11.80;99.90;;;;;;5119363;28;20177;-79
2022/10/12 06:46:53;;;;;;;0.50;0.50;;;11.80;99.90;;;;;;5118383;28;20188;-80
2022/10/12 06:49:19;;;;;;;0.30;0.30;;;11.70;99.90;;;;;;5112166;28;20177;-78
2022/10/12 06:51:45;;;;;;;0.50;0.50;;;11.80;99.90;;;;;;5098877;28;20225;-79
2022/10/12 06:54:10;;;;;;;0.50;0.50;;;11.80;99.90;;;;;;5117573;28;20197;-79
2022/10/12 06:56:37;;;;;;;0.40;0.40;;;11.90;99.90;;;;;;5117952;28;20203;-79
2022/10/12 06:59:02;;;;;;;0.40;0.40;;;11.90;99.90;;;;;;5108320;28;20220;-79
2022/10/12 07:01:28;;;;;;;0.40;0.40;;;11.90;99.90;;;;;;5104229;28;20192;-79
2022/10/12 07:03:53;;;;;;;0.50;0.50;;;11.90;99.90;;;;;;5119913;28;20242;-78
2022/10/12 07:06:19;;;;;;;0.40;0.40;;;11.90;99.90;;;;;;5116225;28;20177;-80
2022/10/12 07:08:44;;;;;;;0.50;0.50;;;12.00;99.90;;;;;;5121426;28;20185;-80
2022/10/12 07:11:12;;;;;;;0.40;0.40;;;12.10;99.90;;;;;;5121637;28;20272;-80
2022/10/12 07:13:38;;;;;;;0.57;0.57;;;12.10;99.90;;;;;;5104536;28;20213;-80
2022/10/12 07:16:04;;;;;;;0.50;0.50;;;12.10;99.90;;;;;;5112379;28;20173;-79
2022/10/12 07:18:29;;;;;;;0.60;0.60;;;12.20;99.90;;;;;;5118751;28;20205;-80
2022/10/12 07:21:01;;;;;;;0.40;0.40;;;12.10;99.90;;;;;;5114938;28;20201;-79
2022/10/12 07:23:29;;;;;;;0.50;0.50;;;12.10;99.90;;;;;;5117819;28;20189;-79
2022/10/12 07:25:54;;;;;;;0.40;0.40;;;12.20;99.90;;;;;;5119814;28;20173;-80
2022/10/12 07:28:20;;;;;;;0.40;0.40;;;12.30;99.90;;;;;;5123446;28;20181;-79
2022/10/12 07:30:46;;;;;;;0.40;0.40;;;12.20;99.90;;;;;;5109050;28;20204;-80
2022/10/12 07:33:12;;;;;;;0.50;0.50;;;12.30;99.90;;;;;;5111026;28;20253;-79
2022/10/12 07:35:38;;;;;;;0.50;0.50;;;12.50;99.90;;;;;;5120654;27;20173;-81
2022/10/12 07:38:04;;;;;;;0.50;0.50;;;12.60;99.90;;;;;;5110692;28;20237;-81
2022/10/12 07:40:30;;;;;;;0.40;0.40;;;12.90;99.90;;;;;;5112466;28;20233;-80
2022/10/12 07:42:55;;;;;;;0.40;0.40;;;13.10;99.90;;;;;;5117002;28;20188;-79
2022/10/12 07:45:21;;;;;;;0.50;0.50;;;13.30;99.90;;;;;;5117381;28;20178;-79
2022/10/12 07:47:47;;;;;;;0.43;0.43;;;13.40;99.90;;;;;;5114342;28;20205;-79
2022/10/12 07:50:13;;;;;;;0.40;0.40;;;13.30;99.90;;;;;;5114424;28;20197;-80
2022/10/12 07:52:39;;;;;;;0.40;0.40;;;13.30;99.90;;;;;;5109209;28;20181;-79
2022/10/12 07:55:05;;;;;;;0.50;0.50;;;13.20;99.90;;;;;;5117847;28;20177;-79
2022/10/12 07:57:30;;;;;;;0.50;0.50;;;13.30;99.90;;;;;;5112503;28;20177;-78
2022/10/12 07:59:56;;;;;;;0.40;0.40;;;13.50;99.90;;;;;;5112774;28;20213;-79
2022/10/12 08:02:21;;;;;;;0.50;0.50;;;13.50;99.90;;;;;;5119911;28;20185;-79
2022/10/12 08:04:47;;;;;;;0.40;0.40;;;13.50;99.90;;;;;;5111863;28;20182;-78
2022/10/12 08:07:13;;;;;;;0.37;0.37;;;13.30;99.90;;;;;;5116645;28;20170;-80
2022/10/12 08:09:39;;;;;;;0.50;0.50;;;13.20;99.90;;;;;;5122507;28;20196;-79
2022/10/12 08:12:04;;;;;;;0.50;0.50;;;13.30;99.90;;;;;;5113162;28;20285;-80
2022/10/12 08:14:30;;;;;;;0.50;0.50;;;13.60;99.90;;;;;;5118070;28;20200;-80
2022/10/12 08:16:56;;;;;;;0.40;0.40;;;13.70;99.90;;;;;;5124381;28;20186;-80
2022/10/12 08:19:21;;;;;;;0.40;0.40;;;14.00;99.90;;;;;;5114077;28;20236;-80
2022/10/12 08:21:49;;;;;;;0.40;0.40;;;14.10;99.90;;;;;;5111657;28;20641;-80
2022/10/12 08:24:14;;;;;;;0.40;0.40;;;14.30;99.90;;;;;;5110209;28;20174;-80
2022/10/12 08:26:40;;;;;;;0.50;0.50;;;14.60;99.90;;;;;;5119076;28;20244;-80
2022/10/12 08:29:07;;;;;;;0.40;0.40;;;14.80;99.90;;;;;;5120094;28;20185;-79
2022/10/12 08:31:32;;;;;;;0.50;0.50;;;14.90;99.90;;;;;;5113990;28;20670;-79
2022/10/12 08:33:59;;;;;;;0.50;0.50;;;14.90;99.90;;;;;;5105781;28;20189;-82
2022/10/12 08:36:25;;;;;;;0.40;0.40;;;15.00;99.90;;;;;;5099278;28;20197;-81
2022/10/12 08:38:52;;;;;;;0.30;0.30;;;15.10;99.90;;;;;;5107200;28;20201;-81
2022/10/12 08:41:45;;;;;;;0.50;0.50;;;15.20;99.90;;;;;;5111119;28;20212;-81
2022/10/12 08:44:37;;;;;;;0.40;0.40;;;15.20;99.90;;;;;;5115333;28;20204;-82
2022/10/12 08:47:14;;;;;;;0.40;0.40;;;15.10;92.80;;;;;;5105331;28;20181;-79
2022/10/12 08:49:42;;;;;;;0.50;0.50;;;15.00;99.90;;;;;;5118872;28;20215;-80
2022/10/12 08:52:30;;;;;;;0.50;0.50;;;15.10;99.90;;;;;;5118952;28;20185;-79
2022/10/12 08:55:02;;;;;;;0.43;0.43;;;15.40;99.90;;;;;;5103902;28;20181;-81
2022/10/12 08:57:28;;;;;;;0.33;0.33;;;15.40;92.10;;;;;;5102602;28;20170;-81
2022/10/12 08:59:53;;;;;;;0.50;0.50;;;15.30;99.90;;;;;;5117347;28;20224;-78
2022/10/12 09:03:03;;;;;;;0.40;0.40;;;15.50;99.90;;;;;;5114104;28;20184;-80
2022/10/12 09:05:35;;;;;;;0.50;0.50;;;15.20;94.20;;;;;;5120336;28;20177;-83
2022/10/12 09:08:10;;;;;;;0.40;0.40;;;15.10;99.90;;;;;;5114353;28;20241;-82
2022/10/12 09:11:02;;;;;;;0.40;0.40;;;15.20;99.90;;;;;;5114141;28;20220;-80
2022/10/12 09:13:45;;;;;;;0.40;0.40;;;15.00;72.00;;;;;;5118065;28;20177;-81
2022/10/12 09:16:18;;;;;;;0.50;0.50;;;15.00;99.90;;;;;;5117067;28;20199;-81
2022/10/12 09:18:51;;;;;;;0.40;0.40;;;14.90;99.90;;;;;;5106598;28;20204;-81
2022/10/12 09:21:19;;;;;;;0.40;0.40;;;14.70;99.90;;;;;;5115851;28;20628;-80
2022/10/12 09:23:46;;;;;;;0.40;0.40;;;14.80;99.90;;;;;;5109194;28;20178;-81
2022/10/12 09:26:24;;;;;;;0.40;0.40;;;14.80;99.90;;;;;;5104536;28;20181;-81
2022/10/12 09:28:54;;;;;;;0.50;0.50;;;14.80;99.90;;;;;;5101694;28;20338;-81
2022/10/12 09:31:27;;;;;;;0.37;0.37;;;14.70;99.90;;;;;;5100684;28;20190;-81
2022/10/12 09:33:56;;;;;;;0.43;0.43;;;14.70;99.90;;;;;;5113894;28;20212;-81
2022/10/12 09:36:24;;;;;;;0.30;0.30;;;14.70;94.20;;;;;;5122171;28;20237;-81
2022/10/12 09:38:50;;;;;;;0.50;0.50;;;14.80;99.90;;;;;;5120852;28;20616;-82
2022/10/12 09:41:29;;;;;;;0.50;0.50;;;14.80;62.10;;;;;;5105065;28;20193;-83
2022/10/12 09:43:58;;;;;;;0.40;0.40;;;14.80;1.00;;;;;;5114664;28;20315;-81
2022/10/12 09:46:44;;;;;;;0.30;0.30;;;14.80;1.00;;;;;;5117727;28;20185;-82
2022/10/12 09:49:09;;;;;;;0.50;0.50;;;14.70;23.90;;;;;;5122599;28;20176;-81
2022/10/12 09:51:36;;;;;;;0.40;0.40;;;14.70;14.20;;;;;;5115136;28;20201;-81
2022/10/12 09:54:03;;;;;;;0.40;0.40;;;14.70;69.00;;;;;;5116326;28;20256;-81
2022/10/12 09:56:50;;;;;;;0.40;0.40;;;14.80;59.30;;;;;;5117028;28;20578;-81
2022/10/12 09:59:38;;;;;;;0.40;0.40;;;14.90;65.10;;;;;;5121317;28;20288;-81
2022/10/12 10:02:07;;;;;;;0.30;0.30;;;14.90;34.00;;;;;;5111709;28;20658;-81
2022/10/12 10:04:32;;;;;;;0.43;0.43;;;15.00;52.60;;;;;;5115650;28;20260;-81
2022/10/12 10:07:19;;;;;;;0.50;0.50;;;15.10;44.20;;;;;;5118138;28;20616;-81
2022/10/12 10:09:45;;;;;;;0.40;0.40;;;15.10;7.20;;;;;;5114753;28;20220;-81
2022/10/12 10:12:26;;;;;;;0.30;0.30;;;15.00;18.90;;;;;;5113412;28;20173;-81
2022/10/12 10:14:55;;;;;;;0.40;0.40;;;15.10;14.60;;;;;;5117023;28;20192;-81
2022/10/12 10:17:35;;;;;;;0.50;0.50;;;15.20;1.00;;;;;;5118814;28;20180;-82
2022/10/12 10:20:04;;;;;;;0.33;0.33;;;15.40;1.00;;;;;;5115167;28;20239;-82
2022/10/12 10:22:30;;;;;;;0.40;0.40;;;15.30;1.00;;;;;;5113075;28;20186;-81
2022/10/12 10:24:58;;;;;;;0.50;0.50;;;15.20;1.00;;;;;;5115151;28;20181;-82
2022/10/12 10:27:29;;;;;;;0.40;0.40;;;15.20;1.00;;;;;;5119524;28;20216;-81
2022/10/12 10:30:08;;;;;;;0.40;0.40;;;15.30;1.00;;;;;;5114671;28;20232;-82
2022/10/12 10:32:34;;;;;;;0.40;0.40;;;15.40;1.00;;;;;;5111602;28;20174;-81
2022/10/12 10:35:00;;;;;;;0.30;0.30;;;15.30;1.00;;;;;;5112405;28;20292;-84
2022/10/12 10:37:27;;;;;;;0.40;0.40;;;15.40;1.00;;;;;;5117152;28;20215;-81
2022/10/12 10:39:54;;;;;;;0.30;0.30;;;15.50;1.00;;;;;;5111743;28;20231;-82
2022/10/12 10:42:31;;;;;;;0.50;0.50;;;15.30;1.00;;;;;;5109866;28;20273;-83
2022/10/12 10:45:02;;;;;;;0.40;0.40;;;15.30;1.00;;;;;;5116491;28;20165;-83
2022/10/12 10:47:31;;;;;;;0.40;0.40;;;15.40;1.00;;;;;;5108009;28;20177;-82
2022/10/12 10:50:00;;;;;;;0.53;0.53;;;15.40;1.00;;;;;;5105454;28;20200;-83
2022/10/12 10:52:32;;;;;;;0.40;0.40;;;15.40;1.00;;;;;;5108169;28;20207;-82
2022/10/12 10:55:09;;;;;;;0.40;0.40;;;15.50;1.00;;;;;;5113204;28;20752;-83
2022/10/12 10:57:41;;;;;;;0.50;0.50;;;15.50;1.00;;;;;;5116075;28;20537;-82
2022/10/12 11:00:14;;;;;;;0.40;0.40;;;15.40;1.00;;;;;;5106806;28;20242;-83
2022/10/12 11:02:44;;;;;;;0.57;0.57;;;15.50;1.00;;;;;;5111509;28;20172;-82
2022/10/12 11:05:17;;;;;;;0.30;0.30;;;15.50;1.00;;;;;;5108302;28;20185;-82
2022/10/12 11:07:49;;;;;;;0.40;0.40;;;15.60;1.00;;;;;;5096441;28;20174;-83
2022/10/12 11:10:28;;;;;;;0.50;0.50;;;15.70;1.00;;;;;;5096156;28;20233;-83
2022/10/12 11:13:24;;;;;;;0.50;0.50;;;15.60;1.00;;;;;;5113431;28;20188;-83
2022/10/12 11:16:15;;;;;;;0.30;0.30;;;15.90;1.00;;;;;;5093318;28;20184;-82
2022/10/12 11:18:45;;;;;;;0.50;0.50;;;16.00;1.00;;;;;;5109549;28;20215;-84
2022/10/12 11:21:18;;;;;;;0.43;0.43;;;16.10;1.00;;;;;;5118894;28;20283;-83
2022/10/12 11:24:00;;;;;;;0.37;0.37;;;16.00;99.90;;;;;;5102912;28;20185;-83
2022/10/12 11:26:36;;;;;;;0.40;0.40;;;15.80;1.00;;;;;;5111680;28;20641;-82
2022/10/12 11:29:03;;;;;;;0.30;0.30;;;15.80;1.00;;;;;;5119723;28;20191;-83
2022/10/12 11:31:38;;;;;;;0.50;0.50;;;15.90;99.90;;;;;;5101962;28;20194;-81
2022/10/12 11:34:06;;;;;;;0.40;0.40;;;15.70;99.90;;;;;;5103594;28;20173;-82
2022/10/12 11:36:36;;;;;;;0.30;0.30;;;15.80;99.90;;;;;;5116799;28;20204;-82
2022/10/12 11:39:06;;;;;;;0.40;0.40;;;15.70;99.90;;;;;;5114827;28;20760;-82
2022/10/12 11:41:46;;;;;;;0.40;0.40;;;15.90;1.00;;;;;;5111617;28;20220;-82
2022/10/12 11:44:30;;;;;;;0.40;0.40;;;16.00;99.90;;;;;;5109603;28;20181;-82
2022/10/12 11:47:03;;;;;;;0.40;0.40;;;15.80;99.90;;;;;;5112082;28;20667;-83
2022/10/12 11:49:47;;;;;;;0.40;0.40;;;15.80;1.00;;;;;;5110937;28;20174;-82
2022/10/12 11:52:14;;;;;;;0.40;0.40;;;15.80;1.00;;;;;;5113162;28;20177;-83
2022/10/12 11:55:03;;;;;;;0.40;0.40;;;15.80;1.00;;;;;;5112735;28;20178;-83
2022/10/12 11:57:35;;;;;;;0.40;0.40;;;15.80;1.00;;;;;;5112022;28;20170;-83
2022/10/12 12:00:05;;;;;;;0.40;0.40;;;16.00;1.00;;;;;;5110092;28;20209;-82
2022/10/12 12:02:38;;;;;;;0.30;0.30;;;16.20;1.00;;;;;;5111181;28;20260;-82
2022/10/12 12:05:05;;;;;;;0.40;0.40;;;16.10;52.50;;;;;;5112810;28;20259;-82
2022/10/12 12:07:40;;;;;;;0.50;0.50;;;16.10;99.90;;;;;;5111945;28;20191;-82
2022/10/12 12:10:24;;;;;;;0.40;0.40;;;16.20;99.90;;;;;;5111733;28;20232;-81
2022/10/12 12:13:09;;;;;;;0.40;0.40;;;16.00;1.00;;;;;;5120619;28;20185;-82
2022/10/12 12:15:36;;;;;;;0.30;0.30;;;16.10;1.00;;;;;;5116233;28;20734;-84
2022/10/12 12:18:21;;;;;;;0.40;0.40;;;16.00;1.00;;;;;;5116767;28;20327;-82
2022/10/12 12:20:47;;;;;;;0.43;0.43;;;15.80;1.00;;;;;;5119041;28;20280;-82
2022/10/12 12:23:23;;;;;;;0.30;0.30;;;15.70;1.00;;;;;;5113071;28;20228;-83
2022/10/12 12:26:10;;;;;;;0.33;0.33;;;15.90;1.00;;;;;;5118305;28;20192;-83
2022/10/12 12:28:39;;;;;;;0.30;0.30;;;16.00;1.00;;;;;;5120638;28;20725;-83
2022/10/12 12:31:11;;;;;;;0.40;0.40;;;15.90;1.00;;;;;;5130389;27;20282;-83
2022/10/12 12:33:41;;;;;;;0.37;0.37;;;15.90;1.00;;;;;;5121999;28;20169;-81
2022/10/12 12:36:13;;;;;;;0.40;0.40;;;15.90;1.00;;;;;;5132414;28;20247;-82
2022/10/12 12:38:46;;;;;;;0.40;0.40;;;15.90;1.00;;;;;;5136248;28;20196;-82
2022/10/12 12:41:20;;;;;;;0.40;0.40;;;16.00;1.00;;;;;;5119504;28;20197;-83
2022/10/12 12:43:57;;;;;;;0.50;0.50;;;16.10;1.00;;;;;;5111008;28;20178;-82
2022/10/12 12:46:44;;;;;;;0.30;0.30;;;15.90;99.90;;;;;;5114416;28;20177;-82
2022/10/12 12:49:47;;;;;;;0.30;0.30;;;16.10;99.90;;;;;;5101668;28;20185;-82
2022/10/12 12:52:19;;;;;;;0.40;0.40;;;16.10;1.00;;;;;;5074073;28;20263;-84
2022/10/12 12:55:24;;;;;;;0.43;0.43;;;16.10;99.90;;;;;;5110837;28;20178;-83
2022/10/12 12:58:21;;;;;;;0.30;0.30;;;16.10;1.00;;;;;;5102644;28;20810;-82
2022/10/12 13:01:22;;;;;;;0.50;0.50;;;16.40;66.80;;;;;;5109701;28;20204;-82
2022/10/12 13:04:12;;;;;;;0.50;0.50;;;16.40;1.00;;;;;;5096212;28;20532;-84